APL New Jersey — A8NM6 — position and weather

sailwx.info

Track history (hours):
 
Tides and Currents Weather Stations Pressure Air Temp Water Temp Dewpoint Dewpoint Depression Visibility Wind Speed Wind Dir Waves Ship Positions

APL New Jersey

Last reported at 2014-Nov-16 09:33 UTC. Time now 2014-Nov-20 20:54 UTC.
Position N 32°07' W 117°42'.

Length 293 m; draft 9.5 m.

Type: Cargo ship. MMSI: 636013522.

Date/timePositionNaut miles runAvg speedWind from/ knotsBaromVisibWave heightAir tempDewpointWater temp
2014-Nov-16 09:33N 32°07' W 117°42'1918.8
2014-Nov-16 08:33N 32°25' W 117°45'2020.2
2014-Nov-16 07:33N 32°45' W 117°50'1817.7
2014-Nov-16 06:33N 33°03' W 117°52'1111.3
2014-Nov-16 05:33N 33°12' W 117°60'1111.3
2014-Nov-16 04:33N 33°21' W 118°07'1111.3
2014-Nov-16 03:33N 33°32' W 118°12'1110.2
2014-Nov-16 02:28N 33°43' W 118°15'1 1.4
2014-Nov-16 01:29N 33°44' W 118°15'0 0.0
2014-Nov-16 00:26N 33°44' W 118°15'0 0.0
2014-Nov-15 23:33N 33°44' W 118°15'0 0.0
2014-Nov-15 22:32N 33°44' W 118°15'0 0.0
2014-Nov-15 21:31N 33°44' W 118°15'0 0.0
2014-Nov-15 20:33N 33°44' W 118°15'0 0.0
2014-Nov-15 19:32N 33°44' W 118°15'0 0.0
2014-Nov-15 18:30N 33°44' W 118°15'0 0.0
2014-Nov-15 17:33N 33°44' W 118°15'0 0.0
2014-Nov-15 16:33N 33°44' W 118°15'0 0.0
2014-Nov-15 07:28N 33°44' W 118°15'0 0.0
2014-Nov-15 05:32N 33°44' W 118°15'0 0.0
2014-Nov-15 04:26N 33°44' W 118°15'0 0.0
2014-Nov-15 02:30N 33°44' W 118°15'0 0.0
2014-Nov-15 01:32N 33°44' W 118°15'0 0.0
2014-Nov-15 00:33N 33°44' W 118°15'0 0.0
2014-Nov-14 23:33N 33°44' W 118°15'0 0.0
2014-Nov-14 22:34N 33°44' W 118°15'0 0.0
2014-Nov-14 21:33N 33°44' W 118°15'0 0.0
2014-Nov-14 20:33N 33°44' W 118°15'0 0.0
2014-Nov-14 19:33N 33°44' W 118°15'0 0.0
2014-Nov-14 18:33N 33°44' W 118°15'0 0.0
2014-Nov-14 17:33N 33°44' W 118°15'0 0.0
2014-Nov-14 16:22N 33°44' W 118°15'0 0.0
2014-Nov-14 15:33N 33°44' W 118°15'0 0.0
2014-Nov-14 14:33N 33°44' W 118°15'0 0.0
2014-Nov-14 12:34N 33°44' W 118°15'0 0.0
2014-Nov-14 11:34N 33°44' W 118°15'0 0.0
2014-Nov-14 10:34N 33°44' W 118°15'0 0.0
2014-Nov-14 09:34N 33°44' W 118°15'0 0.0
2014-Nov-14 08:33N 33°44' W 118°15'0 0.0
2014-Nov-14 07:34N 33°44' W 118°15'0 0.0
2014-Nov-14 06:33N 33°44' W 118°15'0 0.0
2014-Nov-14 05:34N 33°44' W 118°15'0 0.0
2014-Nov-14 04:33N 33°44' W 118°15'0 0.0
2014-Nov-14 03:34N 33°44' W 118°15'0 0.0
2014-Nov-14 02:34N 33°44' W 118°15'0 0.0
2014-Nov-14 01:33N 33°44' W 118°15'0 0.0
2014-Nov-14 00:34N 33°44' W 118°15'0 0.0
2014-Nov-13 23:34N 33°44' W 118°15'0 0.0
2014-Nov-13 22:33N 33°44' W 118°15'0 0.0
2014-Nov-13 21:34N 33°44' W 118°15'0 0.0
2014-Nov-13 20:34N 33°44' W 118°15'0 0.0
2014-Nov-13 19:34N 33°44' W 118°15'0 0.0
2014-Nov-13 18:33N 33°44' W 118°15'0 0.0
2014-Nov-13 17:33N 33°44' W 118°15'0 0.0
2014-Nov-13 16:33N 33°44' W 118°15'0 0.0
2014-Nov-13 15:34N 33°44' W 118°15'0 0.0
2014-Nov-13 14:33N 33°44' W 118°15'0 0.4
2014-Nov-13 13:33N 33°44' W 118°15'7 6.7
2014-Nov-13 12:33N 33°37' W 118°14'25 8.2
2014-Nov-13 09:31N 33°46' W 118°42'31 9.5
2014-Nov-13 06:14N 34°01' W 119°14'6 9.6
2014-Nov-13 05:33N 34°04' W 119°22'10 9.6
2014-Nov-13 04:33N 34°06' W 119°33'10 9.7
2014-Nov-13 03:34N 34°09' W 119°44'10 9.7
2014-Nov-13 02:33N 34°12' W 119°55'10 9.7
2014-Nov-13 01:33N 34°14' W 120°07'10 9.8
2014-Nov-13 00:33N 34°17' W 120°18'10 9.6
2014-Nov-12 23:32N 34°19' W 120°29'  
Track history (hours):
 
Tides and Currents Weather Stations Pressure Air Temp Water Temp Dewpoint Dewpoint Depression Visibility Wind Speed Wind Dir Waves Ship Positions

APL New Jersey

Last reported at 2014-Nov-16 09:33 UTC. Time now 2014-Nov-20 20:54 UTC.
Position N 32°07' W 117°42'.

Length 293 m; draft 9.5 m.

Type: Cargo ship. MMSI: 636013522.

Date/timePositionNaut miles runAvg speedWind from/ knotsBaromVisibWave heightAir tempDewpointWater temp
2014-Nov-16 09:33N 32°07' W 117°42'1918.8
2014-Nov-16 08:33N 32°25' W 117°45'2020.2
2014-Nov-16 07:33N 32°45' W 117°50'1817.7
2014-Nov-16 06:33N 33°03' W 117°52'1111.3
2014-Nov-16 05:33N 33°12' W 117°60'1111.3
2014-Nov-16 04:33N 33°21' W 118°07'1111.3
2014-Nov-16 03:33N 33°32' W 118°12'1110.2
2014-Nov-16 02:28N 33°43' W 118°15'1 1.4
2014-Nov-16 01:29N 33°44' W 118°15'0 0.0
2014-Nov-16 00:26N 33°44' W 118°15'0 0.0
2014-Nov-15 23:33N 33°44' W 118°15'0 0.0
2014-Nov-15 22:32N 33°44' W 118°15'0 0.0
2014-Nov-15 21:31N 33°44' W 118°15'0 0.0
2014-Nov-15 20:33N 33°44' W 118°15'0 0.0
2014-Nov-15 19:32N 33°44' W 118°15'0 0.0
2014-Nov-15 18:30N 33°44' W 118°15'0 0.0
2014-Nov-15 17:33N 33°44' W 118°15'0 0.0
2014-Nov-15 16:33N 33°44' W 118°15'0 0.0
2014-Nov-15 07:28N 33°44' W 118°15'0 0.0
2014-Nov-15 05:32N 33°44' W 118°15'0 0.0
2014-Nov-15 04:26N 33°44' W 118°15'0 0.0
2014-Nov-15 02:30N 33°44' W 118°15'0 0.0
2014-Nov-15 01:32N 33°44' W 118°15'0 0.0
2014-Nov-15 00:33N 33°44' W 118°15'0 0.0
2014-Nov-14 23:33N 33°44' W 118°15'0 0.0
2014-Nov-14 22:34N 33°44' W 118°15'0 0.0
2014-Nov-14 21:33N 33°44' W 118°15'0 0.0
2014-Nov-14 20:33N 33°44' W 118°15'0 0.0
2014-Nov-14 19:33N 33°44' W 118°15'0 0.0
2014-Nov-14 18:33N 33°44' W 118°15'0 0.0
2014-Nov-14 17:33N 33°44' W 118°15'0 0.0
2014-Nov-14 16:22N 33°44' W 118°15'0 0.0
2014-Nov-14 15:33N 33°44' W 118°15'0 0.0
2014-Nov-14 14:33N 33°44' W 118°15'0 0.0
2014-Nov-14 12:34N 33°44' W 118°15'0 0.0
2014-Nov-14 11:34N 33°44' W 118°15'0 0.0
2014-Nov-14 10:34N 33°44' W 118°15'0 0.0
2014-Nov-14 09:34N 33°44' W 118°15'0 0.0
2014-Nov-14 08:33N 33°44' W 118°15'0 0.0
2014-Nov-14 07:34N 33°44' W 118°15'0 0.0
2014-Nov-14 06:33N 33°44' W 118°15'0 0.0
2014-Nov-14 05:34N 33°44' W 118°15'0 0.0
2014-Nov-14 04:33N 33°44' W 118°15'0 0.0
2014-Nov-14 03:34N 33°44' W 118°15'0 0.0
2014-Nov-14 02:34N 33°44' W 118°15'0 0.0
2014-Nov-14 01:33N 33°44' W 118°15'0 0.0
2014-Nov-14 00:34N 33°44' W 118°15'0 0.0
2014-Nov-13 23:34N 33°44' W 118°15'0 0.0
2014-Nov-13 22:33N 33°44' W 118°15'0 0.0
2014-Nov-13 21:34N 33°44' W 118°15'0 0.0
2014-Nov-13 20:34N 33°44' W 118°15'0 0.0
2014-Nov-13 19:34N 33°44' W 118°15'0 0.0
2014-Nov-13 18:33N 33°44' W 118°15'0 0.0
2014-Nov-13 17:33N 33°44' W 118°15'0 0.0
2014-Nov-13 16:33N 33°44' W 118°15'0 0.0
2014-Nov-13 15:34N 33°44' W 118°15'0 0.0
2014-Nov-13 14:33N 33°44' W 118°15'0 0.4
2014-Nov-13 13:33N 33°44' W 118°15'7 6.7
2014-Nov-13 12:33N 33°37' W 118°14'25 8.2
2014-Nov-13 09:31N 33°46' W 118°42'31 9.5
2014-Nov-13 06:14N 34°01' W 119°14'6 9.6
2014-Nov-13 05:33N 34°04' W 119°22'10 9.6
2014-Nov-13 04:33N 34°06' W 119°33'10 9.7
2014-Nov-13 03:34N 34°09' W 119°44'10 9.7
2014-Nov-13 02:33N 34°12' W 119°55'10 9.7
2014-Nov-13 01:33N 34°14' W 120°07'10 9.8
2014-Nov-13 00:33N 34°17' W 120°18'10 9.6
2014-Nov-12 23:32N 34°19' W 120°29'  

Dump ship's entire track history